Terminal Aerodrome Forecast
Issued by NWS Nashville, TN

Home | Current Version | Previous Version | Text Only | Print | Product List | Glossary On
Versions: 1 2 3 4 5 6 7 8 9 10 11 12 13 14 15 16 17 18 19 20 21
000
FTUS44 KOHX 020324 AAA
TAFBNA
TAF AMD
KBNA 020324Z 0203/0224 18007KT P6SM SCT040 OVC070
     FM020600 23010G18KT 4SM -TSRA BR BKN040CB OVC070
      TEMPO 0206/0208 1 1/2SM -TSRA BR BKN030CB OVC070
     FM020900 20006KT 6SM BR VCTS OVC030CB
     FM021300 19006KT 6SM -SHRA OVC030=

USA.gov is the U.S. government's official web portal to all federal, state and local government web resources and services.